Time;durP1;ratioP1;P1;durP2;ratioP2;P2;SDS_P1;SDS_P2;PMS_P1;PMS_P2;Temp;Humidity;BMP_temperature;BMP_pressure;BME280_temperature;BME280_humidity;BME280_pressure;Samples;Min_cycle;Max_cycle;Signal;HPM_P1;HPM_P2
2022/05/25 00:00:10;;;;;;;7.93;5.03;;;10.40;99.90;;;;;;5051292;28;20516;-81
2022/05/25 00:02:36;;;;;;;7.88;4.88;;;10.50;99.90;;;;;;5050285;28;20550;-81
2022/05/25 00:05:04;;;;;;;10.63;5.15;;;10.50;99.90;;;;;;5038443;28;20041;-81
2022/05/25 00:07:30;;;;;;;6.85;4.70;;;10.50;99.90;;;;;;5055110;28;20032;-82
2022/05/25 00:09:56;;;;;;;4.78;4.28;;;10.50;99.90;;;;;;5054740;28;20032;-81
2022/05/25 00:12:34;;;;;;;5.83;4.77;;;10.50;99.90;;;;;;5038884;28;20040;-81
2022/05/25 00:15:00;;;;;;;5.88;5.10;;;10.50;99.90;;;;;;5052126;28;20381;-81
2022/05/25 00:17:26;;;;;;;6.45;5.32;;;10.50;99.90;;;;;;5055375;28;20140;-81
2022/05/25 00:20:01;;;;;;;7.65;4.97;;;10.50;99.90;;;;;;5054861;28;20132;-81
2022/05/25 00:22:41;;;;;;;8.38;5.65;;;10.50;99.90;;;;;;5053310;28;20125;-82
2022/05/25 00:25:09;;;;;;;8.48;5.72;;;10.50;99.90;;;;;;5054423;28;20044;-81
2022/05/25 00:27:34;;;;;;;7.88;5.60;;;10.40;99.90;;;;;;5054589;28;20087;-82
2022/05/25 00:30:01;;;;;;;8.43;6.20;;;10.40;99.90;;;;;;5053998;28;20053;-81
2022/05/25 00:32:27;;;;;;;;;;;10.40;99.90;;;;;;5038897;28;20294;-81
2022/05/25 00:34:52;;;;;;;6.75;5.50;;;10.40;99.90;;;;;;5054274;28;19916;-81
2022/05/25 00:37:18;;;;;;;7.97;6.10;;;10.30;99.90;;;;;;5056790;28;20037;-80
2022/05/25 00:39:44;;;;;;;6.87;6.17;;;10.30;99.90;;;;;;5042723;28;20074;-80
2022/05/25 00:42:09;;;;;;;8.50;6.28;;;10.40;99.90;;;;;;5060514;28;20279;-81
2022/05/25 00:44:35;;;;;;;11.50;7.22;;;10.30;99.90;;;;;;5038072;28;20079;-82
2022/05/25 00:47:01;;;;;;;8.97;6.67;;;10.30;99.90;;;;;;5036985;28;20134;-82
2022/05/25 00:49:30;;;;;;;7.75;6.43;;;10.20;99.90;;;;;;5053925;28;20056;-82
2022/05/25 00:52:06;;;;;;;7.70;5.88;;;10.20;99.90;;;;;;5053924;28;20039;-82
2022/05/25 00:54:45;;;;;;;8.73;6.63;;;10.20;99.90;;;;;;5053898;28;20481;-81
2022/05/25 00:57:16;;;;;;;9.80;6.63;;;10.20;99.90;;;;;;5037195;28;20128;-82
2022/05/25 01:00:20;;;;;;;7.93;6.68;;;10.20;99.90;;;;;;5053915;28;20039;-81
2022/05/25 01:02:51;;;;;;;10.75;7.38;;;10.20;99.90;;;;;;5037241;28;20558;-82
2022/05/25 01:05:33;;;;;;;10.23;7.40;;;10.20;99.90;;;;;;5052216;28;20049;-81
2022/05/25 01:08:01;;;;;;;9.65;7.28;;;10.10;99.90;;;;;;5053979;28;20550;-82
2022/05/25 01:10:58;;;;;;;12.43;7.40;;;10.10;99.90;;;;;;5054269;28;20610;-82
2022/05/25 01:13:44;;;;;;;9.75;7.05;;;10.10;99.90;;;;;;5053902;28;20033;-81
2022/05/25 01:16:28;;;;;;;8.43;6.95;;;10.10;99.90;;;;;;5053881;28;20068;-81
2022/05/25 01:19:08;;;;;;;11.60;7.30;;;10.10;99.90;;;;;;5051825;28;20496;-81
2022/05/25 01:21:43;;;;;;;9.43;7.22;;;10.10;99.90;;;;;;5054188;28;20085;-83
2022/05/25 01:24:33;;;;;;;9.02;7.05;;;10.00;99.90;;;;;;5035474;28;20040;-82
2022/05/25 01:27:17;;;;;;;11.18;7.70;;;9.90;99.90;;;;;;5035208;28;20365;-81
2022/05/25 01:30:19;;;;;;;10.10;7.65;;;9.90;99.90;;;;;;5051944;28;20500;-81
2022/05/25 01:33:06;;;;;;;10.57;8.05;;;9.80;99.90;;;;;;5052835;28;20036;-83
2022/05/25 01:35:52;;;;;;;9.23;7.80;;;9.80;99.90;;;;;;5050725;28;20036;-82
2022/05/25 01:38:26;;;;;;;10.75;7.45;;;9.80;99.90;;;;;;5052646;28;20040;-82
2022/05/25 01:41:13;;;;;;;12.02;8.13;;;9.70;99.90;;;;;;5050731;28;20090;-81
2022/05/25 01:43:42;;;;;;;12.43;8.23;;;9.70;99.90;;;;;;5052374;28;20119;-82
2022/05/25 01:46:18;;;;;;;10.82;9.05;;;9.70;99.90;;;;;;5052169;28;20032;-81
2022/05/25 01:48:45;;;;;;;12.27;8.88;;;9.60;99.90;;;;;;5036024;28;20124;-81
2022/05/25 01:51:16;;;;;;;12.02;9.10;;;9.60;99.90;;;;;;5036023;28;20032;-82
2022/05/25 01:53:47;;;;;;;12.23;9.40;;;9.60;99.90;;;;;;5036201;28;20043;-82
2022/05/25 01:56:17;;;;;;;12.45;9.40;;;9.60;99.90;;;;;;5052219;28;20044;-82
2022/05/25 01:58:46;;;;;;;14.77;9.50;;;9.60;99.90;;;;;;5052429;28;20134;-82
2022/05/25 02:01:13;;;;;;;11.55;8.63;;;9.60;99.90;;;;;;5049982;28;20044;-82
2022/05/25 02:06:38;;;;;;;13.95;10.07;;;9.70;99.90;;;;;;5050990;28;20043;-82
2022/05/25 02:09:37;;;;;;;14.07;11.20;;;9.60;99.90;;;;;;5051728;28;20044;-82
2022/05/25 02:12:30;;;;;;;13.77;10.95;;;9.60;99.90;;;;;;5050508;28;20093;-82
2022/05/25 02:15:13;;;;;;;13.05;10.90;;;9.60;99.90;;;;;;5078832;28;20503;-82
2022/05/25 02:18:08;;;;;;;14.02;10.65;;;9.60;99.90;;;;;;5051944;28;20044;-82
2022/05/25 02:20:43;;;;;;;14.45;11.48;;;9.60;99.90;;;;;;5052126;28;20460;-82
2022/05/25 02:23:37;;;;;;;14.82;11.25;;;9.60;99.90;;;;;;5051199;28;20036;-82
2022/05/25 02:26:31;;;;;;;16.63;12.63;;;9.50;99.90;;;;;;5034454;28;20480;-81
2022/05/25 02:29:05;;;;;;;15.98;11.98;;;9.50;99.90;;;;;;5054938;28;20036;-80
2022/05/25 02:31:36;;;;;;;18.65;12.75;;;9.50;99.90;;;;;;5051708;28;20047;-82
2022/05/25 02:34:05;;;;;;;17.70;12.80;;;9.60;99.90;;;;;;5050214;28;20119;-82
2022/05/25 02:36:34;;;;;;;17.35;12.57;;;9.50;99.90;;;;;;5051807;28;20032;-82
2022/05/25 02:39:04;;;;;;;16.58;12.77;;;9.50;99.90;;;;;;5051525;28;20413;-82
2022/05/25 02:41:33;;;;;;;16.55;12.85;;;9.50;99.90;;;;;;5051580;28;20048;-83
2022/05/25 02:44:01;;;;;;;17.77;12.80;;;9.50;99.90;;;;;;5034586;28;20068;-81
2022/05/25 02:46:27;;;;;;;19.23;12.57;;;9.50;99.90;;;;;;5034767;28;20032;-82
2022/05/25 02:48:52;;;;;;;18.83;13.33;;;9.40;99.90;;;;;;5057035;28;20040;-81
2022/05/25 02:51:18;;;;;;;18.23;13.50;;;9.40;99.90;;;;;;5039441;28;20032;-81
2022/05/25 02:53:45;;;;;;;18.50;12.68;;;9.40;99.90;;;;;;5036657;28;20493;-83
2022/05/25 02:56:11;;;;;;;17.95;12.80;;;9.40;99.90;;;;;;5050930;28;20048;-82
2022/05/25 02:58:36;;;;;;;19.00;13.10;;;9.30;99.90;;;;;;5051156;28;20488;-81
2022/05/25 03:01:03;;;;;;;17.63;12.93;;;9.30;99.90;;;;;;5050952;28;20088;-83
2022/05/25 03:03:31;;;;;;;;;;;9.30;99.90;;;;;;5051897;28;20127;-82
2022/05/25 03:05:57;;;;;;;15.02;12.25;;;9.20;99.90;;;;;;5033910;28;19920;-82
2022/05/25 03:08:22;;;;;;;18.37;13.80;;;9.20;99.90;;;;;;5051056;28;20043;-82
2022/05/25 03:10:48;;;;;;;18.50;13.30;;;9.10;99.90;;;;;;5035079;28;20076;-82
2022/05/25 03:13:14;;;;;;;20.07;13.50;;;9.10;99.90;;;;;;5050699;28;20303;-82
2022/05/25 03:15:39;;;;;;;18.90;12.90;;;9.10;99.90;;;;;;5034327;28;20063;-83
2022/05/25 03:18:06;;;;;;;17.07;13.13;;;9.10;99.90;;;;;;5050547;28;20295;-82
2022/05/25 03:20:33;;;;;;;20.60;13.15;;;9.10;99.90;;;;;;5034427;28;20036;-82
2022/05/25 03:22:58;;;;;;;20.52;13.63;;;9.10;99.90;;;;;;5049713;28;20037;-81
2022/05/25 03:25:24;;;;;;;17.10;13.07;;;9.00;99.90;;;;;;5000243;28;20055;-83
2022/05/25 03:27:50;;;;;;;18.65;13.23;;;9.00;99.90;;;;;;5050683;28;20362;-82
2022/05/25 03:30:20;;;;;;;17.80;12.17;;;9.00;99.90;;;;;;5033933;28;20060;-83
2022/05/25 03:32:46;;;;;;;16.77;12.70;;;9.00;99.90;;;;;;5050870;28;20040;-83
2022/05/25 03:35:13;;;;;;;15.95;12.60;;;9.00;99.90;;;;;;5050844;28;20416;-82
2022/05/25 03:37:39;;;;;;;17.35;12.75;;;9.00;99.90;;;;;;5049459;28;20089;-82
2022/05/25 03:40:09;;;;;;;18.23;13.07;;;9.10;99.90;;;;;;5021437;28;20123;-82
2022/05/25 03:42:39;;;;;;;19.15;13.68;;;9.00;99.90;;;;;;5038101;28;20044;-83
2022/05/25 03:45:05;;;;;;;20.60;14.15;;;9.00;99.90;;;;;;5037725;28;20040;-82
2022/05/25 03:47:32;;;;;;;18.85;13.20;;;9.00;99.90;;;;;;5038348;28;20041;-81
2022/05/25 03:49:58;;;;;;;;;;;8.90;99.90;;;;;;5038936;28;20040;-82
2022/05/25 03:52:24;;;;;;;18.83;13.63;;;9.00;99.90;;;;;;5054481;28;20975;-82
2022/05/25 03:54:50;;;;;;;22.50;14.90;;;8.90;99.90;;;;;;5054757;28;20051;-82
2022/05/25 03:57:16;;;;;;;18.65;14.52;;;9.40;99.90;;;;;;5054278;28;20045;-82
2022/05/25 03:59:42;;;;;;;21.80;14.13;;;9.00;99.90;;;;;;5038002;28;20511;-82
2022/05/25 04:02:08;;;;;;;21.42;14.82;;;9.00;99.90;;;;;;5021022;28;20286;-82
2022/05/25 04:04:34;;;;;;;22.47;14.90;;;9.00;99.90;;;;;;5037703;28;20472;-82
2022/05/25 04:07:00;;;;;;;20.92;14.30;;;9.10;99.90;;;;;;5054142;28;20283;-82
2022/05/25 04:09:26;;;;;;;20.65;14.55;;;9.00;99.90;;;;;;5037645;28;20484;-82
2022/05/25 04:11:52;;;;;;;19.52;14.10;;;9.00;99.90;;;;;;5037583;28;20047;-81
2022/05/25 04:14:18;;;;;;;23.40;15.38;;;9.00;99.90;;;;;;5037075;28;20126;-81
2022/05/25 04:16:44;;;;;;;19.52;14.23;;;9.00;99.90;;;;;;5054619;28;20085;-81
2022/05/25 04:19:11;;;;;;;20.05;14.60;;;9.10;99.90;;;;;;5053921;28;20072;-81
2022/05/25 04:21:36;;;;;;;23.10;15.05;;;9.00;99.90;;;;;;5037499;28;20051;-82
2022/05/25 04:24:03;;;;;;;21.10;14.32;;;9.10;99.90;;;;;;5020759;28;20041;-82
2022/05/25 04:26:30;;;;;;;;;;;9.10;99.90;;;;;;5053713;28;20032;-80
2022/05/25 04:28:57;;;;;;;22.63;14.55;;;9.20;99.90;;;;;;5052151;28;19920;-81
2022/05/25 04:31:22;;;;;;;;;;;9.20;99.90;;;;;;5053788;28;20053;-82
2022/05/25 04:33:48;;;;;;;19.83;14.23;;;9.20;99.90;;;;;;5051040;28;19924;-82
2022/05/25 04:36:13;;;;;;;21.67;14.27;;;9.30;99.90;;;;;;5054014;28;20033;-82
2022/05/25 04:38:39;;;;;;;21.07;14.43;;;9.50;99.90;;;;;;5021157;28;20376;-82
2022/05/25 04:41:05;;;;;;;20.50;14.93;;;9.30;99.90;;;;;;5054532;28;20051;-82
2022/05/25 04:43:31;;;;;;;27.17;15.18;;;9.30;99.90;;;;;;5037487;28;20391;-82
2022/05/25 04:45:59;;;;;;;21.70;15.27;;;9.40;99.90;;;;;;5054056;28;20127;-82
2022/05/25 04:48:25;;;;;;;22.25;14.85;;;9.50;99.90;;;;;;5037430;28;20314;-82
2022/05/25 04:50:52;;;;;;;23.42;14.43;;;9.50;99.90;;;;;;5051736;28;20033;-82
2022/05/25 04:53:20;;;;;;;22.35;14.73;;;9.90;99.90;;;;;;5053498;28;20047;-82
2022/05/25 04:58:34;;;;;;;23.00;14.70;;;9.80;99.90;;;;;;5053166;28;20058;-82
2022/05/25 05:01:01;;;;;;;21.60;14.15;;;9.90;99.90;;;;;;5053737;28;20080;-82
2022/05/25 05:03:28;;;;;;;17.33;13.20;;;9.90;99.90;;;;;;5036713;28;20484;-81
2022/05/25 05:05:54;;;;;;;;;;;10.00;99.90;;;;;;5054096;28;20075;-81
2022/05/25 05:08:20;;;;;;;17.77;12.98;;;10.20;99.90;;;;;;5056969;28;19916;-82
2022/05/25 05:10:46;;;;;;;21.42;13.70;;;10.20;99.90;;;;;;5040868;28;20032;-81
2022/05/25 05:13:11;;;;;;;18.50;12.68;;;10.40;99.90;;;;;;5053047;28;20033;-82
2022/05/25 05:15:41;;;;;;;17.02;12.93;;;10.40;99.90;;;;;;5053132;28;20111;-82
2022/05/25 05:18:08;;;;;;;18.17;13.02;;;10.50;99.90;;;;;;5053572;28;20479;-81
2022/05/25 05:20:34;;;;;;;20.20;13.55;;;10.70;99.90;;;;;;5053182;28;20072;-81
2022/05/25 05:22:59;;;;;;;17.17;12.40;;;10.80;99.90;;;;;;5053272;28;20504;-82
2022/05/25 05:25:26;;;;;;;19.07;13.03;;;10.90;99.90;;;;;;5052234;28;20037;-81
2022/05/25 05:27:51;;;;;;;;;;;11.10;99.90;;;;;;5053670;28;20452;-81
2022/05/25 05:30:20;;;;;;;17.88;12.60;;;11.20;99.90;;;;;;5035912;28;19920;-84
2022/05/25 05:32:46;;;;;;;16.10;11.50;;;11.40;99.90;;;;;;5052807;28;20041;-83
2022/05/25 05:35:12;;;;;;;17.05;11.20;;;11.60;99.90;;;;;;5036376;28;20033;-84
2022/05/25 05:37:45;;;;;;;17.48;12.23;;;11.70;99.90;;;;;;5053063;28;20032;-84
2022/05/25 05:40:12;;;;;;;18.08;11.57;;;11.80;99.90;;;;;;5052489;28;20048;-81
2022/05/25 05:42:39;;;;;;;17.50;11.93;;;12.00;99.90;;;;;;5036167;28;20044;-83
2022/05/25 05:45:16;;;;;;;16.92;12.15;;;12.00;99.90;;;;;;5036053;28;20253;-82
2022/05/25 05:47:58;;;;;;;15.23;10.90;;;12.10;99.90;;;;;;5052981;28;20457;-83
2022/05/25 05:50:25;;;;;;;15.88;10.95;;;12.30;99.90;;;;;;5052120;28;20041;-83
2022/05/25 05:52:52;;;;;;;14.13;10.05;;;12.50;99.90;;;;;;5052010;28;20040;-83
2022/05/25 05:55:19;;;;;;;13.88;10.05;;;12.90;99.90;;;;;;5052144;28;20040;-82
2022/05/25 05:57:45;;;;;;;11.57;8.75;;;13.40;99.90;;;;;;5054896;28;20037;-81
2022/05/25 06:00:13;;;;;;;15.10;8.77;;;13.70;99.90;;;;;;5020244;28;20071;-82
2022/05/25 06:02:39;;;;;;;13.38;8.07;;;14.10;99.90;;;;;;5051944;28;20037;-82
2022/05/25 06:05:05;;;;;;;11.85;8.20;;;14.40;99.90;;;;;;5036108;28;20070;-82
2022/05/25 06:07:30;;;;;;;11.23;7.90;;;14.60;99.90;;;;;;5035922;28;20499;-81
2022/05/25 06:09:56;;;;;;;10.93;7.50;;;14.80;99.90;;;;;;5052531;28;20029;-81
2022/05/25 06:12:23;;;;;;;8.65;6.60;;;15.00;99.90;;;;;;5057771;28;20416;-82
2022/05/25 06:14:49;;;;;;;10.55;6.75;;;15.20;99.90;;;;;;5052636;28;20044;-82
2022/05/25 06:19:59;;;;;;;9.50;6.80;;;15.60;99.90;;;;;;5057519;28;20040;-82
2022/05/25 06:22:26;;;;;;;11.15;6.75;;;15.80;99.90;;;;;;5035240;28;20052;-82
2022/05/25 06:24:53;;;;;;;7.78;6.03;;;15.90;99.90;;;;;;5052107;28;20044;-82
2022/05/25 06:27:21;;;;;;;8.30;6.47;;;16.10;99.90;;;;;;5034716;28;20110;-82
2022/05/25 06:29:49;;;;;;;9.15;6.28;;;16.40;99.90;;;;;;5051601;28;20101;-82
2022/05/25 06:32:18;;;;;;;9.20;5.93;;;16.50;99.90;;;;;;5050518;28;20072;-82
2022/05/25 06:34:48;;;;;;;8.68;5.13;;;16.70;99.90;;;;;;5050382;28;20033;-83
2022/05/25 06:37:25;;;;;;;7.80;5.15;;;16.80;99.90;;;;;;5054615;28;20040;-82
2022/05/25 06:39:50;;;;;;;;;;;17.00;99.90;;;;;;5037676;28;20392;-83
2022/05/25 06:42:16;;;;;;;7.68;5.20;;;17.00;99.90;;;;;;5034896;28;19917;-81
2022/05/25 06:44:44;;;;;;;9.82;5.47;;;17.10;99.90;;;;;;5051423;28;20447;-84
2022/05/25 06:47:14;;;;;;;9.55;5.47;;;17.30;99.90;;;;;;5052159;28;20492;-84
2022/05/25 06:49:39;;;;;;;9.52;5.18;;;17.50;99.90;;;;;;5034729;28;20032;-84
2022/05/25 06:52:09;;;;;;;6.90;3.90;;;17.50;99.90;;;;;;5056802;28;20108;-83
2022/05/25 06:54:35;;;;;;;8.20;4.28;;;17.70;99.90;;;;;;5038014;28;20067;-83
2022/05/25 06:57:00;;;;;;;9.43;4.82;;;17.80;99.90;;;;;;5052219;28;20084;-83
2022/05/25 06:59:26;;;;;;;6.82;4.13;;;17.90;99.90;;;;;;5051481;28;20530;-82
2022/05/25 07:01:52;;;;;;;7.82;4.85;;;17.80;99.90;;;;;;5052183;28;20443;-83
2022/05/25 07:04:17;;;;;;;7.63;3.97;;;17.90;99.90;;;;;;5035194;28;20036;-82
2022/05/25 07:06:43;;;;;;;6.22;3.97;;;18.00;99.90;;;;;;5035135;28;20033;-83
2022/05/25 07:09:09;;;;;;;5.05;3.78;;;18.10;99.90;;;;;;5052030;28;20028;-83
2022/05/25 07:11:36;;;;;;;5.50;3.60;;;18.10;99.90;;;;;;5017112;28;20546;-83
2022/05/25 07:14:02;;;;;;;;;;;18.40;99.90;;;;;;5052404;28;20078;-82
2022/05/25 07:16:28;;;;;;;6.95;3.60;;;18.40;99.90;;;;;;5051239;28;19916;-82
2022/05/25 07:18:54;;;;;;;;;;;18.50;99.90;;;;;;5039147;28;20066;-82
2022/05/25 07:21:22;;;;;;;5.55;3.20;;;18.50;99.90;;;;;;5053593;28;19917;-82
2022/05/25 07:23:50;;;;;;;6.70;3.47;;;18.50;99.90;;;;;;5060787;28;20124;-82
2022/05/25 07:26:16;;;;;;;6.57;3.95;;;18.60;99.90;;;;;;5053044;28;20048;-80
2022/05/25 07:28:42;;;;;;;5.15;3.38;;;18.80;99.90;;;;;;5050868;28;20128;-82
2022/05/25 07:31:13;;;;;;;5.80;3.58;;;18.70;99.90;;;;;;5051453;28;20496;-83
2022/05/25 07:33:42;;;;;;;7.30;3.70;;;19.00;99.90;;;;;;5050875;28;20041;-83
2022/05/25 07:36:10;;;;;;;6.38;3.65;;;19.20;99.90;;;;;;5051604;28;20111;-82
2022/05/25 07:38:43;;;;;;;5.03;3.55;;;19.10;99.90;;;;;;5050834;28;20040;-84
2022/05/25 07:41:10;;;;;;;7.90;3.42;;;19.10;99.90;;;;;;5057837;28;20033;-81
2022/05/25 07:43:37;;;;;;;6.18;3.25;;;19.20;99.90;;;;;;5048664;28;20546;-81
2022/05/25 07:46:03;;;;;;;5.85;3.42;;;19.40;99.90;;;;;;5051467;28;20086;-81
2022/05/25 07:48:29;;;;;;;5.20;3.40;;;19.30;99.90;;;;;;5017773;28;20459;-81
2022/05/25 07:50:55;;;;;;;7.47;3.45;;;19.70;99.90;;;;;;5051450;28;20528;-81
2022/05/25 07:56:05;;;;;;;4.65;3.00;;;19.80;99.90;;;;;;5057056;28;20435;-82
2022/05/25 07:58:32;;;;;;;4.25;2.60;;;19.90;99.90;;;;;;5050897;28;20123;-83
2022/05/25 08:01:01;;;;;;;;;;;19.80;99.90;;;;;;5035158;28;20404;-83
2022/05/25 08:06:11;;;;;;;5.38;3.45;;;19.60;99.90;;;;;;5057276;28;20072;-82
2022/05/25 08:08:37;;;;;;;5.65;3.42;;;19.40;99.90;;;;;;5050388;28;20060;-82
2022/05/25 08:11:10;;;;;;;;;;;19.50;99.90;;;;;;5035337;28;20492;-82
2022/05/25 08:13:38;;;;;;;5.38;3.30;;;19.80;99.90;;;;;;5049562;28;19924;-82
2022/05/25 08:16:04;;;;;;;5.60;3.47;;;19.90;99.90;;;;;;5051179;28;20037;-82
2022/05/25 08:18:30;;;;;;;6.35;3.50;;;19.90;99.90;;;;;;5033802;28;20029;-82
2022/05/25 08:20:56;;;;;;;5.72;3.80;;;19.80;99.90;;;;;;5051031;28;20071;-82
2022/05/25 08:23:22;;;;;;;5.57;3.55;;;19.80;99.90;;;;;;5051092;28;20040;-82
2022/05/25 08:25:48;;;;;;;4.97;3.80;;;19.70;99.90;;;;;;5060181;28;20029;-82
2022/05/25 08:28:14;;;;;;;8.35;4.00;;;19.80;99.90;;;;;;5038266;28;20035;-83
2022/05/25 08:30:41;;;;;;;5.32;3.60;;;20.00;99.90;;;;;;5020500;28;20194;-83
2022/05/25 08:33:08;;;;;;;4.15;2.97;;;20.00;99.90;;;;;;5053873;28;20123;-82
2022/05/25 08:35:34;;;;;;;4.50;2.60;;;20.40;99.90;;;;;;5051567;28;20071;-82
2022/05/25 08:38:00;;;;;;;5.05;2.60;;;20.40;99.90;;;;;;5038128;28;20064;-82
2022/05/25 08:40:29;;;;;;;4.28;2.72;;;20.40;99.90;;;;;;5059785;28;20048;-82
2022/05/25 08:42:59;;;;;;;3.83;2.42;;;20.40;99.90;;;;;;5054445;28;20127;-83
2022/05/25 08:45:32;;;;;;;3.47;1.90;;;20.50;99.90;;;;;;5054113;28;20522;-83
2022/05/25 08:47:59;;;;;;;5.07;2.00;;;20.40;99.90;;;;;;5054567;28;20056;-82
2022/05/25 08:50:25;;;;;;;2.78;1.80;;;20.50;99.90;;;;;;5037901;28;20500;-82
2022/05/25 08:52:56;;;;;;;3.80;2.17;;;20.70;99.90;;;;;;5052085;28;20029;-82
2022/05/25 08:55:51;;;;;;;5.07;2.30;;;20.60;99.90;;;;;;5037541;28;20032;-82
2022/05/25 08:58:18;;;;;;;3.53;2.00;;;20.40;99.90;;;;;;5035904;28;20123;-81
2022/05/25 09:00:45;;;;;;;2.88;2.13;;;20.60;99.90;;;;;;5053326;28;20098;-79
2022/05/25 09:03:34;;;;;;;4.43;2.20;;;20.80;99.90;;;;;;5037238;28;20036;-77
2022/05/25 09:06:10;;;;;;;3.95;2.03;;;20.70;99.90;;;;;;5054149;28;20082;-80
2022/05/25 09:08:44;;;;;;;4.18;2.35;;;20.50;99.90;;;;;;5051900;28;20123;-80
2022/05/25 09:11:42;;;;;;;4.05;2.30;;;20.40;99.90;;;;;;5053175;28;20400;-78
2022/05/25 09:14:16;;;;;;;4.28;2.45;;;20.30;99.90;;;;;;5048914;28;20400;-81
2022/05/25 09:16:46;;;;;;;3.13;2.03;;;20.10;99.90;;;;;;5054441;28;20102;-81
2022/05/25 09:19:47;;;;;;;6.07;2.05;;;19.70;99.90;;;;;;5054825;28;20094;-80
2022/05/25 09:22:23;;;;;;;3.70;2.22;;;19.50;99.90;;;;;;5015361;28;20132;-80
2022/05/25 09:24:51;;;;;;;4.70;2.25;;;19.50;99.90;;;;;;5037931;28;20060;-81
2022/05/25 09:27:23;;;;;;;2.97;2.17;;;20.10;99.90;;;;;;5054834;28;20062;-80
2022/05/25 09:29:49;;;;;;;5.38;2.15;;;19.80;99.90;;;;;;5052497;28;20153;-79
2022/05/25 09:32:37;;;;;;;4.22;2.28;;;20.00;99.90;;;;;;5002680;28;20049;-81
2022/05/25 09:35:16;;;;;;;3.30;2.55;;;20.20;99.90;;;;;;5053134;28;20048;-80
2022/05/25 09:37:56;;;;;;;3.17;2.20;;;20.30;99.90;;;;;;5043895;28;20511;-81
2022/05/25 09:40:44;;;;;;;3.17;2.10;;;20.10;99.90;;;;;;5062420;28;20053;-81
2022/05/25 09:43:14;;;;;;;3.35;2.03;;;19.80;99.90;;;;;;5059135;28;20044;-80
2022/05/25 09:45:49;;;;;;;6.38;2.30;;;19.50;99.90;;;;;;5052771;28;20075;-81
2022/05/25 09:48:24;;;;;;;2.00;1.73;;;19.70;99.90;;;;;;5053803;28;20067;-81
2022/05/25 09:50:52;;;;;;;4.45;2.47;;;19.70;99.90;;;;;;5052961;28;20075;-81
2022/05/25 09:53:21;;;;;;;3.85;2.47;;;19.70;99.90;;;;;;5051578;28;20388;-81
2022/05/25 09:56:30;;;;;;;6.30;2.30;;;20.00;99.90;;;;;;5052979;28;20048;-81
2022/05/25 09:59:00;;;;;;;5.47;2.70;;;20.10;99.90;;;;;;5006208;28;20048;-81
2022/05/25 10:01:42;;;;;;;4.25;2.45;;;20.00;99.90;;;;;;5052865;28;20032;-81
2022/05/25 10:04:10;;;;;;;3.35;2.40;;;19.90;99.90;;;;;;5053232;28;20397;-81
2022/05/25 10:06:52;;;;;;;3.85;2.28;;;19.80;99.90;;;;;;5051803;28;20040;-81
2022/05/25 10:09:23;;;;;;;3.45;2.53;;;19.70;99.90;;;;;;5052981;28;20032;-81
2022/05/25 10:11:52;;;;;;;3.78;2.40;;;19.50;99.90;;;;;;5052265;28;20044;-80
2022/05/25 10:14:17;;;;;;;4.15;2.78;;;19.30;99.90;;;;;;5036299;28;20036;-80
2022/05/25 10:16:44;;;;;;;4.85;2.90;;;19.40;99.90;;;;;;5052289;28;20442;-80
2022/05/25 10:19:14;;;;;;;4.65;2.60;;;19.20;99.90;;;;;;5053208;28;20123;-81
2022/05/25 10:21:47;;;;;;;6.07;2.80;;;19.10;99.90;;;;;;5052238;28;20041;-81
2022/05/25 10:24:57;;;;;;;3.05;2.42;;;19.00;99.90;;;;;;5056762;28;20096;-81
2022/05/25 10:27:34;;;;;;;4.22;2.78;;;18.90;99.90;;;;;;5006714;28;20475;-81
2022/05/25 10:36:45;;;;;;;4.90;2.50;;;18.50;99.90;;;;;;5052691;28;20044;-81
2022/05/25 10:39:26;;;;;;;6.13;3.30;;;18.60;99.90;;;;;;5058513;28;20504;-80
2022/05/25 10:42:44;;;;;;;4.80;2.92;;;18.60;99.90;;;;;;5035394;28;20033;-80
2022/05/25 10:45:13;;;;;;;3.75;3.00;;;18.50;99.90;;;;;;5052237;28;20147;-81
2022/05/25 10:47:49;;;;;;;4.35;3.17;;;18.40;99.90;;;;;;5051585;28;20111;-79
2022/05/25 10:50:53;;;;;;;4.20;3.60;;;18.40;99.90;;;;;;5050852;28;20120;-81
2022/05/25 10:53:41;;;;;;;4.00;3.20;;;18.20;99.90;;;;;;5042955;28;20532;-81
2022/05/25 10:56:28;;;;;;;4.55;3.33;;;18.10;99.90;;;;;;5052391;28;20067;-81
2022/05/25 10:59:09;;;;;;;5.22;3.00;;;18.10;99.90;;;;;;5051858;28;20040;-81
2022/05/25 11:01:52;;;;;;;6.43;3.42;;;18.00;99.90;;;;;;5052025;28;20040;-81
2022/05/25 11:04:45;;;;;;;5.38;3.00;;;18.00;99.90;;;;;;5035272;28;20090;-81
2022/05/25 11:07:37;;;;;;;13.85;4.32;;;17.80;99.90;;;;;;5052038;28;20037;-80
2022/05/25 11:10:30;;;;;;;15.07;5.53;;;17.70;99.90;;;;;;5050305;28;20040;-78
2022/05/25 11:13:24;;;;;;;6.90;4.50;;;17.30;99.90;;;;;;5035034;28;20499;-79
2022/05/25 11:15:56;;;;;;;8.15;4.35;;;16.90;99.90;;;;;;5051722;28;20044;-79
2022/05/25 11:19:03;;;;;;;5.80;3.90;;;16.60;99.90;;;;;;5052129;28;20036;-80
2022/05/25 11:21:48;;;;;;;5.78;4.85;;;16.60;99.90;;;;;;5040954;28;20048;-80
2022/05/25 11:24:32;;;;;;;9.00;5.75;;;16.70;99.90;;;;;;5051639;28;20083;-80
2022/05/25 11:27:16;;;;;;;7.97;5.65;;;16.70;99.90;;;;;;5034192;28;20115;-80
2022/05/25 11:30:00;;;;;;;6.28;4.80;;;16.70;99.90;;;;;;5049975;28;20094;-79
2022/05/25 11:32:53;;;;;;;7.00;4.78;;;16.60;99.90;;;;;;5051758;28;20408;-80
2022/05/25 11:35:34;;;;;;;7.10;5.53;;;16.70;99.90;;;;;;5020894;28;20068;-81
2022/05/25 11:38:40;;;;;;;7.30;5.40;;;17.10;99.90;;;;;;5034956;28;20511;-80
2022/05/25 11:41:06;;;;;;;8.55;5.90;;;17.50;99.90;;;;;;5010556;28;20055;-81
2022/05/25 11:43:45;;;;;;;8.27;5.10;;;18.30;99.90;;;;;;5035337;28;20028;-80
2022/05/25 11:46:32;;;;;;;7.78;4.93;;;18.80;99.90;;;;;;5050928;28;20431;-82
2022/05/25 11:49:32;;;;;;;6.07;4.82;;;19.00;99.90;;;;;;5051573;28;20064;-80
2022/05/25 11:52:23;;;;;;;9.77;5.45;;;19.00;99.90;;;;;;5046201;28;20044;-80
2022/05/25 11:55:12;;;;;;;8.02;3.10;;;19.20;99.90;;;;;;5049280;28;20045;-80
2022/05/25 11:58:01;;;;;;;6.18;4.60;;;19.50;99.90;;;;;;5051318;28;20127;-81
2022/05/25 12:00:53;;;;;;;7.57;4.30;;;19.80;99.90;;;;;;5022700;28;20078;-80
2022/05/25 12:03:31;;;;;;;7.60;4.15;;;19.80;99.90;;;;;;5055271;28;20071;-80
2022/05/25 12:05:58;;;;;;;6.40;4.30;;;19.70;99.90;;;;;;5054951;28;20044;-80
2022/05/25 12:08:37;;;;;;;3.50;2.95;;;19.50;99.90;;;;;;5055603;28;20476;-81
2022/05/25 12:11:09;;;;;;;2.08;1.52;;;19.50;99.90;;;;;;5061301;28;20041;-80
2022/05/25 12:13:54;;;;;;;4.35;1.40;;;19.30;99.90;;;;;;5055163;28;20028;-80
2022/05/25 12:16:29;;;;;;;4.72;1.88;;;19.20;99.90;;;;;;5054097;28;20407;-80
2022/05/25 12:19:23;;;;;;;4.70;2.40;;;19.30;99.90;;;;;;5039851;28;20241;-80
2022/05/25 12:22:08;;;;;;;3.78;2.20;;;19.30;99.90;;;;;;5055994;28;20393;-80
2022/05/25 12:24:41;;;;;;;3.17;2.40;;;19.20;99.90;;;;;;5055043;28;20117;-80
2022/05/25 12:27:14;;;;;;;6.68;2.58;;;19.20;99.90;;;;;;5055061;28;20456;-79
2022/05/25 12:29:48;;;;;;;4.10;2.40;;;19.30;99.90;;;;;;5055244;28;20076;-81
2022/05/25 12:32:14;;;;;;;5.55;2.75;;;19.60;99.90;;;;;;5055002;28;20052;-78
2022/05/25 12:34:46;;;;;;;5.72;2.42;;;19.70;99.90;;;;;;5054237;28;20044;-81
2022/05/25 12:37:18;;;;;;;6.78;2.42;;;19.80;99.90;;;;;;5054669;28;20041;-80
2022/05/25 12:39:53;;;;;;;5.18;2.97;;;19.80;99.90;;;;;;5038683;28;20044;-81
2022/05/25 12:42:22;;;;;;;6.10;1.60;;;19.80;99.90;;;;;;5054652;28;20040;-81
2022/05/25 12:50:36;;;;;;;2.75;0.80;;;19.20;99.90;;;;;;5057622;28;20075;-81
2022/05/25 12:53:20;;;;;;;3.33;0.50;;;19.20;99.90;;;;;;5055713;28;20121;-79
2022/05/25 12:56:06;;;;;;;4.28;0.45;;;19.20;99.90;;;;;;5053516;28;20036;-81
2022/05/25 12:58:32;;;;;;;3.30;0.60;;;19.20;99.90;;;;;;5051958;28;20041;-81
2022/05/25 13:01:08;;;;;;;8.15;0.60;;;19.40;99.90;;;;;;5037149;28;20052;-81
2022/05/25 13:03:45;;;;;;;5.13;0.50;;;19.60;99.90;;;;;;5051432;28;20059;-81
2022/05/25 13:06:12;;;;;;;4.35;0.50;;;19.80;99.90;;;;;;5050753;28;20098;-81
2022/05/25 13:08:49;;;;;;;3.30;0.30;;;19.70;99.90;;;;;;5036883;28;20039;-80
2022/05/25 13:11:33;;;;;;;3.47;0.50;;;19.90;99.90;;;;;;5056679;28;20036;-79
2022/05/25 13:14:20;;;;;;;3.03;0.60;;;20.20;99.90;;;;;;5053743;28;20044;-80
2022/05/25 13:16:46;;;;;;;2.07;0.40;;;20.40;99.90;;;;;;5036761;28;20071;-80
2022/05/25 13:19:37;;;;;;;2.45;0.50;;;20.30;99.90;;;;;;5053832;28;20040;-80
2022/05/25 13:22:03;;;;;;;3.53;0.63;;;20.40;99.90;;;;;;5056663;28;20044;-80
2022/05/25 13:24:35;;;;;;;1.77;0.45;;;20.40;99.90;;;;;;5053643;28;20064;-81
2022/05/25 13:27:16;;;;;;;2.15;0.63;;;20.40;99.90;;;;;;5052392;28;20103;-80
2022/05/25 13:30:18;;;;;;;3.13;0.35;;;20.20;99.90;;;;;;5064559;28;20484;-80
2022/05/25 13:33:19;;;;;;;2.13;0.60;;;19.90;99.90;;;;;;5055875;28;20106;-79
2022/05/25 13:35:52;;;;;;;2.38;0.60;;;19.60;99.90;;;;;;5051351;28;20051;-80
2022/05/25 13:38:30;;;;;;;2.42;0.40;;;19.50;99.90;;;;;;5053922;28;20041;-80
2022/05/25 13:41:08;;;;;;;3.67;0.43;;;19.60;99.90;;;;;;5037177;28;20062;-80